Csl Melbourne — 8PWP — position and weather

sailwx.info

Track history (hours):
 
Tides and Currents Weather Stations Pressure Air Temp Water Temp Dewpoint Dewpoint Depression Visibility Wind Speed Wind Dir Waves Ship Positions

Csl Melbourne

Last reported at 2014-Sep-23 15:34 UTC. Time now 2014-Sep-23 16:27 UTC.
Position S 39°12' E 146°04'.

Length 187 m; draft 11 m.

Type: Cargo ship. MMSI: 314317000.

Date/timePositionNaut miles runAvg speedWind from/ knotsBaromVisibWave heightAir tempDewpointWater temp
2014-Sep-23 15:34S 39°12' E 146°04'1212.3
2014-Sep-23 14:34S 39°12' E 146°20'1212.4
2014-Sep-23 13:34S 39°08' E 146°35'1312.6
2014-Sep-23 12:33S 39°04' E 146°50'1313.0
2014-Sep-23 11:33S 39°00' E 147°06'1313.2
2014-Sep-23 10:34S 38°56' E 147°22'1313.2
2014-Sep-23 09:33S 38°52' E 147°39'1313.0
2014-Sep-23 08:33S 38°48' E 147°54'1312.9
2014-Sep-23 07:34S 38°44' E 148°10'1212.3
2014-Sep-23 06:34S 38°39' E 148°24'1212.2
2014-Sep-23 05:33S 38°32' E 148°38'1312.7
2014-Sep-23 04:34S 38°24' E 148°50'1512.8
2014-Sep-23 03:25S 38°15' E 149°05'1112.8
2014-Sep-23 02:33S 38°08' E 149°16'1212.4
2014-Sep-23 01:33S 38°00' E 149°28'1312.7
2014-Sep-23 00:33S 37°52' E 149°40'1010.1
2014-Sep-22 23:33S 37°46' E 149°50'1312.8
2014-Sep-22 22:33S 37°38' E 150°03'1712.6
2014-Sep-22 21:12S 37°24' E 150°16'259 7.3
2014-Sep-21 09:32S 33°18' E 151°57'2 1.7
2014-Sep-21 08:27S 33°17' E 151°56'8 8.9
2014-Sep-21 07:32S 33°09' E 151°53'12 8.7
2014-Sep-21 06:08S 32°57' E 151°50'3 4.8
2014-Sep-21 05:33S 32°55' E 151°47'1 0.6
2014-Sep-21 03:28S 32°54' E 151°46'0 0.0
2014-Sep-21 02:28S 32°54' E 151°46'0 0.0
2014-Sep-21 01:29S 32°54' E 151°46'0 0.0
2014-Sep-20 23:04S 32°54' E 151°46'0 0.0
2014-Sep-20 22:26S 32°54' E 151°46'0 0.0
2014-Sep-20 21:31S 32°54' E 151°46'0 0.0
2014-Sep-20 18:29S 32°54' E 151°46'0 0.0
2014-Sep-20 17:26S 32°54' E 151°46'0 0.0
2014-Sep-20 15:26S 32°54' E 151°46'0 0.0
2014-Sep-20 14:16S 32°54' E 151°46'0 0.0
2014-Sep-20 12:29S 32°54' E 151°46'0 0.0
2014-Sep-20 11:28S 32°54' E 151°46'0 0.0
2014-Sep-20 10:16S 32°54' E 151°46'0 0.0
2014-Sep-20 09:10S 32°54' E 151°46'0 0.1
2014-Sep-20 04:32S 32°54' E 151°46'7 5.7
2014-Sep-20 03:22S 32°57' E 151°53'5 6.0
2014-Sep-20 02:33S 32°58' E 151°59'3 2.7
2014-Sep-20 01:33S 32°58' E 152°02'1 1.4
2014-Sep-20 00:33S 32°59' E 152°03'5 4.7
2014-Sep-19 23:33S 32°60' E 152°09'6 5.9
2014-Sep-19 22:33S 33°02' E 152°15'6 5.9
2014-Sep-19 21:33S 33°02' E 152°23'10 9.6
2014-Sep-19 20:33S 33°03' E 152°34'2 2.4
2014-Sep-19 19:33S 33°05' E 152°33'4 1.3
2014-Sep-19 16:33S 33°09' E 152°32'1 1.1
2014-Sep-19 15:16S 33°10' E 152°31'1 1.0
2014-Sep-19 14:33S 33°11' E 152°31'1 1.0
2014-Sep-19 13:29S 33°12' E 152°31'1 0.3
2014-Sep-19 09:12S 33°13' E 152°32'6 8.3
2014-Sep-19 08:30S 33°08' E 152°36'22 7.4
2014-Sep-19 05:32S 32°50' E 152°51'2 1.2
2014-Sep-19 04:18S 32°49' E 152°51'2 2.4
2014-Sep-19 03:33S 32°50' E 152°50'2 2.4
2014-Sep-19 02:33S 32°52' E 152°48'3 2.3
2014-Sep-19 01:20S 32°54' E 152°46'2 2.4
2014-Sep-19 00:33S 32°55' E 152°44'2 2.3
2014-Sep-18 23:33S 32°56' E 152°42'2 2.2
2014-Sep-18 22:33S 32°58' E 152°40'3 2.4
2014-Sep-18 21:27S 33°00' E 152°38'3 2.3
2014-Sep-18 20:07S 33°03' E 152°36'2 2.3
2014-Sep-18 19:18S 33°05' E 152°35'2 2.3
2014-Sep-18 18:29S 33°06' E 152°34'2 2.3
2014-Sep-18 17:28S 33°08' E 152°33'2 2.1
2014-Sep-18 16:22S 33°11' E 152°32'2 2.1
2014-Sep-18 15:32S 33°12' E 152°32'5 2.1
2014-Sep-18 13:10S 33°09' E 152°27'5 8.6
2014-Sep-18 12:33S 33°04' E 152°25'4 3.7
2014-Sep-18 11:33S 33°00' E 152°24'2 2.1
2014-Sep-18 10:24S 33°02' E 152°26'2 2.2
2014-Sep-18 09:30S 33°04' E 152°27'3 2.3
2014-Sep-18 08:22S 33°06' E 152°29'5 2.3
2014-Sep-18 06:20S 33°08' E 152°34'22 8.0
2014-Sep-18 03:33S 32°50' E 152°50'1 1.2
2014-Sep-18 02:28S 32°49' E 152°50'8 2.0
2014-Sep-17 22:33S 32°54' E 152°43'2 2.0
2014-Sep-17 21:33S 32°55' E 152°41'2 2.1
2014-Sep-17 20:33S 32°56' E 152°40'2 2.0
2014-Sep-17 19:33S 32°58' E 152°38'2 1.9
2014-Sep-17 18:33S 32°60' E 152°37'2 1.9
2014-Sep-17 17:32S 33°01' E 152°35'2 1.8
2014-Sep-17 16:33S 33°03' E 152°34'2 1.5
2014-Sep-17 15:33S 33°04' E 152°33'1 1.5
2014-Sep-17 14:33S 33°05' E 152°32'1 1.2
2014-Sep-17 13:31S 33°06' E 152°31'1 1.1
2014-Sep-17 12:31S 33°06' E 152°30'1 1.0
2014-Sep-17 11:33S 33°07' E 152°29'1 0.9
2014-Sep-17 10:33S 33°07' E 152°28'1 1.1
2014-Sep-17 09:33S 33°07' E 152°26'7 7.4
2014-Sep-17 08:33S 33°01' E 152°31'1310.7
2014-Sep-17 07:21S 32°51' E 152°40'810.3
2014-Sep-17 06:33S 32°44' E 152°47'10 9.4
2014-Sep-17 05:31S 32°37' E 152°54'2 1.9
2014-Sep-17 04:33S 32°39' E 152°54'2 2.2
2014-Sep-17 03:33S 32°41' E 152°53'2 2.2
2014-Sep-17 02:30S 32°43' E 152°51'2 2.3
2014-Sep-17 01:33S 32°44' E 152°50'5 2.3
2014-Sep-16 23:33S 32°48' E 152°46'2 2.3
2014-Sep-16 22:32S 32°50' E 152°44'2 2.4
2014-Sep-16 21:31S 32°51' E 152°42'2 2.5
2014-Sep-16 20:33S 32°53' E 152°40'2 2.4
2014-Sep-16 19:33S 32°55' E 152°38'2 2.3
2014-Sep-16 18:33S 32°57' E 152°37'2 1.9
2014-Sep-16 17:33S 32°58' E 152°35'2 1.6
2014-Sep-16 16:31S 32°59' E 152°34'2 1.5
2014-Sep-16 15:09S 33°01' E 152°32'1 1.3
2014-Sep-16 14:33S 33°01' E 152°31'1 1.0
2014-Sep-16 13:33S 33°02' E 152°30'1 0.8
2014-Sep-16 12:33S 33°03' E 152°30'0 0.5
2014-Sep-16 11:33S 33°03' E 152°29'0 0.3
2014-Sep-16 10:33S 33°03' E 152°29'1 1.3
2014-Sep-16 09:30S 33°04' E 152°28'9 9.7
2014-Sep-16 08:33S 33°12' E 152°22'9 9.2
2014-Sep-16 07:33S 33°19' E 152°16'8 8.4
2014-Sep-16 06:33S 33°25' E 152°09'7 0.6
2014-Sep-15 19:32S 33°19' E 152°12'3 3.3
2014-Sep-15 18:33S 33°16' E 152°14'3 3.2
2014-Sep-15 17:33S 33°14' E 152°16'3 3.0
2014-Sep-15 16:33S 33°11' E 152°19'2 2.4
2014-Sep-15 15:33S 33°10' E 152°21'3 2.5
2014-Sep-15 14:33S 33°08' E 152°23'3 3.2
2014-Sep-15 13:33S 33°09' E 152°19'2 2.3
2014-Sep-15 12:33S 33°07' E 152°21'2 2.1
2014-Sep-15 11:33S 33°06' E 152°23'2 1.7
2014-Sep-15 10:33S 33°05' E 152°25'1 1.3
2014-Sep-15 09:33S 33°05' E 152°26'3 3.2
2014-Sep-15 08:32S 33°08' E 152°25'9 9.4
2014-Sep-15 07:33S 33°16' E 152°19'18 0.9
2014-Sep-14 12:07S 33°28' E 152°35'1 1.1
2014-Sep-14 11:30S 33°28' E 152°36'4 0.5
2014-Sep-14 02:33S 33°27' E 152°31'  
Track history (hours):
 
Tides and Currents Weather Stations Pressure Air Temp Water Temp Dewpoint Dewpoint Depression Visibility Wind Speed Wind Dir Waves Ship Positions

Csl Melbourne

Last reported at 2014-Sep-23 15:34 UTC. Time now 2014-Sep-23 16:27 UTC.
Position S 39°12' E 146°04'.

Length 187 m; draft 11 m.

Type: Cargo ship. MMSI: 314317000.

Date/timePositionNaut miles runAvg speedWind from/ knotsBaromVisibWave heightAir tempDewpointWater temp
2014-Sep-23 15:34S 39°12' E 146°04'1212.3
2014-Sep-23 14:34S 39°12' E 146°20'1212.4
2014-Sep-23 13:34S 39°08' E 146°35'1312.6
2014-Sep-23 12:33S 39°04' E 146°50'1313.0
2014-Sep-23 11:33S 39°00' E 147°06'1313.2
2014-Sep-23 10:34S 38°56' E 147°22'1313.2
2014-Sep-23 09:33S 38°52' E 147°39'1313.0
2014-Sep-23 08:33S 38°48' E 147°54'1312.9
2014-Sep-23 07:34S 38°44' E 148°10'1212.3
2014-Sep-23 06:34S 38°39' E 148°24'1212.2
2014-Sep-23 05:33S 38°32' E 148°38'1312.7
2014-Sep-23 04:34S 38°24' E 148°50'1512.8
2014-Sep-23 03:25S 38°15' E 149°05'1112.8
2014-Sep-23 02:33S 38°08' E 149°16'1212.4
2014-Sep-23 01:33S 38°00' E 149°28'1312.7
2014-Sep-23 00:33S 37°52' E 149°40'1010.1
2014-Sep-22 23:33S 37°46' E 149°50'1312.8
2014-Sep-22 22:33S 37°38' E 150°03'1712.6
2014-Sep-22 21:12S 37°24' E 150°16'259 7.3
2014-Sep-21 09:32S 33°18' E 151°57'2 1.7
2014-Sep-21 08:27S 33°17' E 151°56'8 8.9
2014-Sep-21 07:32S 33°09' E 151°53'12 8.7
2014-Sep-21 06:08S 32°57' E 151°50'3 4.8
2014-Sep-21 05:33S 32°55' E 151°47'1 0.6
2014-Sep-21 03:28S 32°54' E 151°46'0 0.0
2014-Sep-21 02:28S 32°54' E 151°46'0 0.0
2014-Sep-21 01:29S 32°54' E 151°46'0 0.0
2014-Sep-20 23:04S 32°54' E 151°46'0 0.0
2014-Sep-20 22:26S 32°54' E 151°46'0 0.0
2014-Sep-20 21:31S 32°54' E 151°46'0 0.0
2014-Sep-20 18:29S 32°54' E 151°46'0 0.0
2014-Sep-20 17:26S 32°54' E 151°46'0 0.0
2014-Sep-20 15:26S 32°54' E 151°46'0 0.0
2014-Sep-20 14:16S 32°54' E 151°46'0 0.0
2014-Sep-20 12:29S 32°54' E 151°46'0 0.0
2014-Sep-20 11:28S 32°54' E 151°46'0 0.0
2014-Sep-20 10:16S 32°54' E 151°46'0 0.0
2014-Sep-20 09:10S 32°54' E 151°46'0 0.1
2014-Sep-20 04:32S 32°54' E 151°46'7 5.7
2014-Sep-20 03:22S 32°57' E 151°53'5 6.0
2014-Sep-20 02:33S 32°58' E 151°59'3 2.7
2014-Sep-20 01:33S 32°58' E 152°02'1 1.4
2014-Sep-20 00:33S 32°59' E 152°03'5 4.7
2014-Sep-19 23:33S 32°60' E 152°09'6 5.9
2014-Sep-19 22:33S 33°02' E 152°15'6 5.9
2014-Sep-19 21:33S 33°02' E 152°23'10 9.6
2014-Sep-19 20:33S 33°03' E 152°34'2 2.4
2014-Sep-19 19:33S 33°05' E 152°33'4 1.3
2014-Sep-19 16:33S 33°09' E 152°32'1 1.1
2014-Sep-19 15:16S 33°10' E 152°31'1 1.0
2014-Sep-19 14:33S 33°11' E 152°31'1 1.0
2014-Sep-19 13:29S 33°12' E 152°31'1 0.3
2014-Sep-19 09:12S 33°13' E 152°32'6 8.3
2014-Sep-19 08:30S 33°08' E 152°36'22 7.4
2014-Sep-19 05:32S 32°50' E 152°51'2 1.2
2014-Sep-19 04:18S 32°49' E 152°51'2 2.4
2014-Sep-19 03:33S 32°50' E 152°50'2 2.4
2014-Sep-19 02:33S 32°52' E 152°48'3 2.3
2014-Sep-19 01:20S 32°54' E 152°46'2 2.4
2014-Sep-19 00:33S 32°55' E 152°44'2 2.3
2014-Sep-18 23:33S 32°56' E 152°42'2 2.2
2014-Sep-18 22:33S 32°58' E 152°40'3 2.4
2014-Sep-18 21:27S 33°00' E 152°38'3 2.3
2014-Sep-18 20:07S 33°03' E 152°36'2 2.3
2014-Sep-18 19:18S 33°05' E 152°35'2 2.3
2014-Sep-18 18:29S 33°06' E 152°34'2 2.3
2014-Sep-18 17:28S 33°08' E 152°33'2 2.1
2014-Sep-18 16:22S 33°11' E 152°32'2 2.1
2014-Sep-18 15:32S 33°12' E 152°32'5 2.1
2014-Sep-18 13:10S 33°09' E 152°27'5 8.6
2014-Sep-18 12:33S 33°04' E 152°25'4 3.7
2014-Sep-18 11:33S 33°00' E 152°24'2 2.1
2014-Sep-18 10:24S 33°02' E 152°26'2 2.2
2014-Sep-18 09:30S 33°04' E 152°27'3 2.3
2014-Sep-18 08:22S 33°06' E 152°29'5 2.3
2014-Sep-18 06:20S 33°08' E 152°34'22 8.0
2014-Sep-18 03:33S 32°50' E 152°50'1 1.2
2014-Sep-18 02:28S 32°49' E 152°50'8 2.0
2014-Sep-17 22:33S 32°54' E 152°43'2 2.0
2014-Sep-17 21:33S 32°55' E 152°41'2 2.1
2014-Sep-17 20:33S 32°56' E 152°40'2 2.0
2014-Sep-17 19:33S 32°58' E 152°38'2 1.9
2014-Sep-17 18:33S 32°60' E 152°37'2 1.9
2014-Sep-17 17:32S 33°01' E 152°35'2 1.8
2014-Sep-17 16:33S 33°03' E 152°34'2 1.5
2014-Sep-17 15:33S 33°04' E 152°33'1 1.5
2014-Sep-17 14:33S 33°05' E 152°32'1 1.2
2014-Sep-17 13:31S 33°06' E 152°31'1 1.1
2014-Sep-17 12:31S 33°06' E 152°30'1 1.0
2014-Sep-17 11:33S 33°07' E 152°29'1 0.9
2014-Sep-17 10:33S 33°07' E 152°28'1 1.1
2014-Sep-17 09:33S 33°07' E 152°26'7 7.4
2014-Sep-17 08:33S 33°01' E 152°31'1310.7
2014-Sep-17 07:21S 32°51' E 152°40'810.3
2014-Sep-17 06:33S 32°44' E 152°47'10 9.4
2014-Sep-17 05:31S 32°37' E 152°54'2 1.9
2014-Sep-17 04:33S 32°39' E 152°54'2 2.2
2014-Sep-17 03:33S 32°41' E 152°53'2 2.2
2014-Sep-17 02:30S 32°43' E 152°51'2 2.3
2014-Sep-17 01:33S 32°44' E 152°50'5 2.3
2014-Sep-16 23:33S 32°48' E 152°46'2 2.3
2014-Sep-16 22:32S 32°50' E 152°44'2 2.4
2014-Sep-16 21:31S 32°51' E 152°42'2 2.5
2014-Sep-16 20:33S 32°53' E 152°40'2 2.4
2014-Sep-16 19:33S 32°55' E 152°38'2 2.3
2014-Sep-16 18:33S 32°57' E 152°37'2 1.9
2014-Sep-16 17:33S 32°58' E 152°35'2 1.6
2014-Sep-16 16:31S 32°59' E 152°34'2 1.5
2014-Sep-16 15:09S 33°01' E 152°32'1 1.3
2014-Sep-16 14:33S 33°01' E 152°31'1 1.0
2014-Sep-16 13:33S 33°02' E 152°30'1 0.8
2014-Sep-16 12:33S 33°03' E 152°30'0 0.5
2014-Sep-16 11:33S 33°03' E 152°29'0 0.3
2014-Sep-16 10:33S 33°03' E 152°29'1 1.3
2014-Sep-16 09:30S 33°04' E 152°28'9 9.7
2014-Sep-16 08:33S 33°12' E 152°22'9 9.2
2014-Sep-16 07:33S 33°19' E 152°16'8 8.4
2014-Sep-16 06:33S 33°25' E 152°09'7 0.6
2014-Sep-15 19:32S 33°19' E 152°12'3 3.3
2014-Sep-15 18:33S 33°16' E 152°14'3 3.2
2014-Sep-15 17:33S 33°14' E 152°16'3 3.0
2014-Sep-15 16:33S 33°11' E 152°19'2 2.4
2014-Sep-15 15:33S 33°10' E 152°21'3 2.5
2014-Sep-15 14:33S 33°08' E 152°23'3 3.2
2014-Sep-15 13:33S 33°09' E 152°19'2 2.3
2014-Sep-15 12:33S 33°07' E 152°21'2 2.1
2014-Sep-15 11:33S 33°06' E 152°23'2 1.7
2014-Sep-15 10:33S 33°05' E 152°25'1 1.3
2014-Sep-15 09:33S 33°05' E 152°26'3 3.2
2014-Sep-15 08:32S 33°08' E 152°25'9 9.4
2014-Sep-15 07:33S 33°16' E 152°19'18 0.9
2014-Sep-14 12:07S 33°28' E 152°35'1 1.1
2014-Sep-14 11:30S 33°28' E 152°36'4 0.5
2014-Sep-14 02:33S 33°27' E 152°31'  

Dump ship's entire track history